Time;durP1;ratioP1;P1;durP2;ratioP2;P2;SDS_P1;SDS_P2;PMS_P1;PMS_P2;Temp;Humidity;BMP_temperature;BMP_pressure;BME280_temperature;BME280_humidity;BME280_pressure;Samples;Min_cycle;Max_cycle;Signal;HPM_P1;HPM_P2
2022/08/20 00:04:02;;;;;;;15.43;11.52;;;;;17.60;101101.00;;;;12673816;22;20225;-82
2022/08/20 00:09:07;;;;;;;16.63;11.38;;;;;17.60;101107.00;;;;12675125;22;20658;-82
2022/08/20 00:14:09;;;;;;;18.27;11.20;;;;;17.50;101095.00;;;;12675276;22;20174;-81
2022/08/20 00:19:12;;;;;;;12.80;9.98;;;;;17.50;101103.00;;;;12650108;23;20566;-81
2022/08/20 00:24:13;;;;;;;14.57;9.60;;;;;17.40;101104.00;;;;12674402;22;20819;-82
2022/08/20 00:29:15;;;;;;;15.48;10.30;;;;;17.30;101114.00;;;;12697957;23;20203;-82
2022/08/20 00:34:21;;;;;;;15.90;9.95;;;;;17.30;101114.00;;;;12718677;23;20195;-82
2022/08/20 00:39:23;;;;;;;20.02;11.25;;;;;17.30;101116.00;;;;12672409;22;20183;-82
2022/08/20 00:44:26;;;;;;;15.80;9.15;;;;;17.20;101110.00;;;;12717343;23;20595;-82
2022/08/20 00:49:31;;;;;;;20.40;7.68;;;;;17.10;101109.00;;;;12715882;23;20278;-82
2022/08/20 00:54:43;;;;;;;17.52;6.63;;;;;17.00;101102.00;;;;12696164;23;20207;-82
2022/08/20 00:59:46;;;;;;;14.57;6.68;;;;;16.80;101110.00;;;;12671877;22;20190;-81
2022/08/20 01:04:53;;;;;;;15.02;6.78;;;;;16.90;101104.00;;;;12696112;23;20214;-81
2022/08/20 01:09:55;;;;;;;18.58;7.03;;;;;16.90;101094.00;;;;12672401;22;20200;-82
2022/08/20 01:15:03;;;;;;;18.45;7.53;;;;;17.00;101099.00;;;;12673032;22;20210;-81
2022/08/20 01:20:12;;;;;;;14.00;7.28;;;;;16.90;101106.00;;;;12672371;23;20199;-82
2022/08/20 01:25:24;;;;;;;12.45;5.75;;;;;16.80;101105.00;;;;12670853;22;20176;-82
2022/08/20 01:30:30;;;;;;;12.18;6.80;;;;;16.80;101105.00;;;;12670298;22;20621;-82
2022/08/20 01:35:40;;;;;;;19.10;5.50;;;;;16.60;101096.00;;;;12695320;23;20168;-82
2022/08/20 01:40:59;;;;;;;15.52;5.63;;;;;16.50;101093.00;;;;12670486;23;20172;-81
2022/08/20 01:46:03;;;;;;;18.48;5.28;;;;;16.40;101111.00;;;;12714257;23;20179;-82
2022/08/20 01:51:07;;;;;;;17.73;6.15;;;;;16.30;101110.00;;;;12669999;22;20176;-81
2022/08/20 01:56:13;;;;;;;20.70;6.72;;;;;16.30;101109.00;;;;12672635;22;20214;-82
2022/08/20 02:01:26;;;;;;;19.00;5.90;;;;;16.30;101104.00;;;;12672503;23;20592;-82
2022/08/20 02:06:31;;;;;;;15.02;6.28;;;;;16.20;101096.00;;;;12699125;23;20569;-82
2022/08/20 02:11:34;;;;;;;18.65;6.03;;;;;16.00;101100.00;;;;12671622;23;20183;-82
2022/08/20 02:16:38;;;;;;;27.52;6.00;;;;;15.90;101096.00;;;;12697422;23;20625;-82
2022/08/20 02:21:44;;;;;;;21.90;6.55;;;;;15.80;101106.00;;;;12672378;23;20247;-81
2022/08/20 02:26:48;;;;;;;15.40;6.32;;;;;15.70;101101.00;;;;12698860;23;20200;-82
2022/08/20 02:31:50;;;;;;;17.33;5.65;;;;;15.60;101095.00;;;;12673472;22;20172;-82
2022/08/20 02:37:17;;;;;;;22.87;6.67;;;;;15.50;101104.00;;;;12696958;23;20168;-82
2022/08/20 02:42:19;;;;;;;22.43;7.23;;;;;15.40;101103.00;;;;12696905;23;20176;-81
2022/08/20 02:47:21;;;;;;;22.23;6.43;;;;;15.40;101101.00;;;;12696095;23;20192;-82
2022/08/20 02:52:23;;;;;;;26.23;6.33;;;;;15.40;101104.00;;;;12696801;23;20183;-82
2022/08/20 02:57:27;;;;;;;21.27;7.63;;;;;15.40;101106.00;;;;12672587;22;20204;-82
2022/08/20 03:02:30;;;;;;;29.23;8.90;;;;;15.50;101107.00;;;;12671966;22;20168;-82
2022/08/20 03:07:43;;;;;;;27.70;10.23;;;;;15.60;101105.00;;;;12696648;23;20252;-82
2022/08/20 03:12:44;;;;;;;23.13;7.73;;;;;15.70;101105.00;;;;12741001;23;20206;-82
2022/08/20 03:17:49;;;;;;;27.83;8.37;;;;;15.80;101101.00;;;;12671396;22;20259;-82
2022/08/20 03:22:52;;;;;;;25.65;7.57;;;;;15.80;101101.00;;;;12695758;23;20176;-82
2022/08/20 03:27:55;;;;;;;20.93;6.70;;;;;15.70;101107.00;;;;12673864;23;20199;-81
2022/08/20 03:32:58;;;;;;;20.67;8.00;;;;;15.70;101102.00;;;;12649974;23;20642;-81
2022/08/20 03:38:04;;;;;;;22.02;8.88;;;;;15.60;101106.00;;;;12693763;23;20163;-81
2022/08/20 03:43:07;;;;;;;27.17;8.55;;;;;15.70;101108.00;;;;12673677;23;20615;-82
2022/08/20 03:48:13;;;;;;;27.38;9.40;;;;;15.80;101115.00;;;;12648840;23;20207;-82
2022/08/20 03:53:15;;;;;;;22.67;7.93;;;;;15.70;101117.00;;;;12696598;23;20178;-81
2022/08/20 03:58:18;;;;;;;22.90;8.87;;;;;15.50;101126.00;;;;12718853;23;20167;-81
2022/08/20 04:03:21;;;;;;;35.67;9.27;;;;;15.40;101120.00;;;;12674341;23;20225;-81
2022/08/20 04:08:26;;;;;;;28.07;8.50;;;;;15.20;101135.00;;;;12672906;23;20195;-82
2022/08/20 04:13:29;;;;;;;20.57;8.20;;;;;15.10;101134.00;;;;12671736;23;20184;-82
2022/08/20 04:18:33;;;;;;;25.23;10.52;;;;;15.10;101141.00;;;;12672180;22;20183;-81
2022/08/20 04:23:35;;;;;;;24.00;9.60;;;;;15.00;101142.00;;;;12672487;22;20179;-81
2022/08/20 04:28:37;;;;;;;28.00;10.30;;;;;15.00;101148.00;;;;12673636;23;20199;-82
2022/08/20 04:33:41;;;;;;;25.33;10.70;;;;;15.00;101146.00;;;;12671990;23;20662;-82
2022/08/20 04:38:43;;;;;;;27.87;10.60;;;;;15.00;101147.00;;;;12670591;22;20175;-82
2022/08/20 04:43:53;;;;;;;20.07;8.47;;;;;15.00;101151.00;;;;12672059;23;20180;-82
2022/08/20 04:48:56;;;;;;;29.90;10.00;;;;;15.00;101153.00;;;;12647442;23;20253;-82
2022/08/20 04:53:58;;;;;;;27.73;10.40;;;;;15.00;101162.00;;;;12672208;23;20176;-82
2022/08/20 04:59:01;;;;;;;21.27;10.43;;;;;15.00;101160.00;;;;12670400;22;20176;-81
2022/08/20 05:04:03;;;;;;;27.87;10.27;;;;;15.00;101157.00;;;;12675150;22;20202;-82
2022/08/20 05:09:05;;;;;;;32.87;11.70;;;;;15.00;101165.00;;;;12673879;23;20199;-82
2022/08/20 05:14:07;;;;;;;30.43;11.07;;;;;15.10;101166.00;;;;12671440;22;20203;-82
2022/08/20 05:19:12;;;;;;;30.43;10.07;;;;;15.30;101171.00;;;;12673199;22;20703;-82
2022/08/20 05:24:15;;;;;;;31.73;11.97;;;;;15.50;101171.00;;;;12701630;23;20179;-82
2022/08/20 05:29:17;;;;;;;26.53;10.97;;;;;15.70;101184.00;;;;12675281;23;20762;-82
2022/08/20 05:34:19;;;;;;;27.37;10.83;;;;;15.90;101184.00;;;;12674686;23;20622;-81
2022/08/20 05:39:21;;;;;;;23.58;10.30;;;;;16.20;101199.00;;;;12719149;23;20258;-83
2022/08/20 05:44:23;;;;;;;25.42;11.25;;;;;16.40;101208.00;;;;12674263;22;20262;-83
2022/08/20 05:49:25;;;;;;;32.70;12.25;;;;;16.60;101218.00;;;;12674779;23;20203;-83
2022/08/20 05:54:27;;;;;;;23.52;10.65;;;;;16.80;101226.00;;;;12719686;23;20247;-82
2022/08/20 05:59:29;;;;;;;25.42;10.68;;;;;16.90;101221.00;;;;12742329;23;20176;-82
2022/08/20 06:04:33;;;;;;;25.77;10.32;;;;;17.00;101224.00;;;;12698496;23;20207;-83
2022/08/20 06:09:35;;;;;;;24.25;10.73;;;;;17.00;101226.00;;;;12649283;23;20666;-82
2022/08/20 06:14:40;;;;;;;22.40;10.23;;;;;17.20;101225.00;;;;12672173;23;20207;-81
2022/08/20 06:19:44;;;;;;;26.10;9.52;;;;;17.40;101227.00;;;;12673669;23;20264;-82
2022/08/20 06:24:47;;;;;;;26.83;10.32;;;;;17.50;101230.00;;;;12672477;22;20233;-82
2022/08/20 06:29:50;;;;;;;23.15;11.00;;;;;17.60;101228.00;;;;12673680;22;20202;-81
2022/08/20 06:34:52;;;;;;;27.65;10.05;;;;;17.70;101221.00;;;;12678765;23;20464;-82
2022/08/20 06:39:54;;;;;;;22.67;10.50;;;;;17.80;101230.00;;;;12696514;23;20178;-82
2022/08/20 06:44:58;;;;;;;24.08;9.77;;;;;17.90;101224.00;;;;12680897;22;20225;-82
2022/08/20 06:50:00;;;;;;;21.42;10.20;;;;;18.10;101230.00;;;;12675512;23;20208;-82
2022/08/20 06:55:03;;;;;;;29.50;11.85;;;;;18.30;101230.00;;;;12673266;23;20174;-81
2022/08/20 07:00:13;;;;;;;20.20;9.52;;;;;18.60;101237.00;;;;12696177;23;20338;-82
2022/08/20 07:05:15;;;;;;;22.88;9.82;;;;;18.90;101241.00;;;;12674718;22;20266;-82
2022/08/20 07:10:19;;;;;;;23.13;11.02;;;;;19.10;101243.00;;;;12696548;23;20191;-82
2022/08/20 07:15:24;;;;;;;27.02;11.50;;;;;19.20;101244.00;;;;12669296;23;20193;-81
2022/08/20 07:20:29;;;;;;;23.95;11.00;;;;;19.50;101247.00;;;;12674355;22;20634;-82
2022/08/20 07:25:32;;;;;;;31.10;11.73;;;;;19.90;101251.00;;;;12700273;23;20172;-82
2022/08/20 07:36:02;;;;;;;24.50;10.73;;;;;20.20;101262.00;;;;12673433;22;20184;-81
2022/08/20 07:41:12;;;;;;;25.15;11.50;;;;;20.60;101271.00;;;;12649162;23;20179;-82
2022/08/20 07:46:17;;;;;;;21.25;10.52;;;;;20.80;101276.00;;;;12673540;22;20211;-82
2022/08/20 07:51:22;;;;;;;19.73;10.80;;;;;21.80;101282.00;;;;12697413;23;20175;-83
2022/08/20 07:56:25;;;;;;;22.48;9.32;;;;;22.30;101282.00;;;;12687269;23;20171;-82
2022/08/20 08:01:31;;;;;;;19.23;9.32;;;;;22.80;101288.00;;;;12672047;23;20194;-82
2022/08/20 08:06:33;;;;;;;20.92;8.65;;;;;23.20;101282.00;;;;12696131;23;20203;-82
2022/08/20 08:11:40;;;;;;;13.63;7.95;;;;;23.70;101287.00;;;;12682221;23;20190;-82
2022/08/20 08:16:48;;;;;;;17.85;7.63;;;;;24.00;101293.00;;;;12672755;23;20175;-82
2022/08/20 08:21:50;;;;;;;13.52;7.07;;;;;24.30;101302.00;;;;12690910;23;20179;-82
2022/08/20 08:26:52;;;;;;;15.63;6.57;;;;;24.60;101294.00;;;;12672149;22;20192;-82
2022/08/20 08:31:55;;;;;;;9.15;5.15;;;;;25.20;101289.00;;;;12669555;23;20213;-80
2022/08/20 08:37:01;;;;;;;9.23;5.38;;;;;25.60;101300.00;;;;12670183;22;20175;-81
2022/08/20 08:42:27;;;;;;;8.43;4.53;;;;;25.10;101298.00;;;;12646610;23;20278;-82
2022/08/20 08:47:34;;;;;;;7.78;4.50;;;;;25.60;101298.00;;;;12687242;23;20269;-82
2022/08/20 08:52:41;;;;;;;12.05;4.88;;;;;25.90;101300.00;;;;12671365;22;20600;-82
2022/08/20 08:57:46;;;;;;;8.35;4.28;;;;;26.90;101307.00;;;;12647442;23;20503;-83
2022/08/20 09:03:10;;;;;;;10.80;4.47;;;;;27.40;101305.00;;;;12693469;23;20172;-83
2022/08/20 09:08:14;;;;;;;11.73;4.18;;;;;27.00;101291.00;;;;12694068;23;20195;-83
2022/08/20 09:13:18;;;;;;;9.48;3.85;;;;;27.60;101294.00;;;;12668758;22;20631;-83
2022/08/20 09:18:20;;;;;;;5.82;3.38;;;;;26.30;101309.00;;;;12668992;22;20208;-83
2022/08/20 09:23:23;;;;;;;7.43;4.03;;;;;26.30;101295.00;;;;12665778;22;20274;-83
2022/08/20 09:28:25;;;;;;;7.90;3.05;;;;;25.20;101299.00;;;;12686175;23;20261;-83
2022/08/20 09:33:33;;;;;;;8.90;2.75;;;;;24.30;101296.00;;;;12692057;23;20179;-82
2022/08/20 09:38:36;;;;;;;9.63;3.60;;;;;24.10;101294.00;;;;12691470;23;20183;-82
2022/08/20 09:43:39;;;;;;;11.20;2.88;;;;;23.80;101301.00;;;;12693553;23;20240;-82
2022/08/20 09:48:42;;;;;;;8.48;2.17;;;;;23.60;101292.00;;;;12688905;23;20203;-82
2022/08/20 09:53:45;;;;;;;6.50;2.35;;;;;23.00;101296.00;;;;12689142;23;20238;-82
2022/08/20 09:58:51;;;;;;;9.38;3.05;;;;;22.40;101289.00;;;;12666058;22;20213;-82
2022/08/20 10:03:53;;;;;;;9.40;2.28;;;;;22.30;101296.00;;;;12690796;23;20225;-82
2022/08/20 10:08:55;;;;;;;9.63;2.45;;;;;23.00;101295.00;;;;12666647;22;20207;-82
2022/08/20 10:13:58;;;;;;;9.10;2.20;;;;;25.90;101282.00;;;;12694109;23;20184;-82
2022/08/20 10:19:00;;;;;;;5.82;2.03;;;;;25.20;101286.00;;;;12671123;23;20744;-82
2022/08/20 10:24:03;;;;;;;7.28;2.40;;;;;25.00;101278.00;;;;12646622;23;20627;-81
2022/08/20 10:29:05;;;;;;;13.20;2.28;;;;;26.30;101284.00;;;;12670637;22;20314;-81
2022/08/20 10:34:08;;;;;;;9.02;3.75;;;;;27.50;101278.00;;;;12694569;23;20180;-82
2022/08/20 10:39:10;;;;;;;5.90;2.22;;;;;27.00;101273.00;;;;12644942;23;20638;-82
2022/08/20 10:44:12;;;;;;;6.00;2.28;;;;;27.80;101255.00;;;;12695220;23;20229;-81
2022/08/20 10:49:15;;;;;;;5.13;1.83;;;;;29.00;101263.00;;;;12712499;23;20226;-82
2022/08/20 10:54:17;;;;;;;10.07;2.53;;;;;29.10;101267.00;;;;12693279;23;20234;-82
2022/08/20 10:59:19;;;;;;;6.65;2.60;;;;;28.80;101243.00;;;;12694803;23;20233;-82
2022/08/20 11:04:22;;;;;;;6.28;2.17;;;;;29.10;101245.00;;;;12671371;22;20176;-82
2022/08/20 11:09:24;;;;;;;6.38;2.80;;;;;30.00;101250.00;;;;12695216;23;20243;-82
2022/08/20 11:14:35;;;;;;;6.40;2.55;;;;;30.30;101253.00;;;;12696646;23;20190;-83
2022/08/20 11:19:42;;;;;;;7.93;2.70;;;;;30.60;101249.00;;;;12669423;22;20246;-83
2022/08/20 11:24:45;;;;;;;6.95;3.08;;;;;31.30;101246.00;;;;12672830;23;20242;-83
2022/08/20 11:29:48;;;;;;;10.35;2.67;;;;;28.80;101254.00;;;;12721100;23;20209;-82
2022/08/20 11:34:54;;;;;;;7.55;2.50;;;;;29.60;101248.00;;;;12668563;23;20638;-82
2022/08/20 11:39:57;;;;;;;8.55;2.30;;;;;29.00;101253.00;;;;12695413;23;20172;-82
2022/08/20 11:44:59;;;;;;;7.50;2.47;;;;;28.50;101242.00;;;;12674162;23;20180;-83
2022/08/20 11:50:03;;;;;;;9.73;2.50;;;;;27.80;101249.00;;;;12671436;22;20689;-84
2022/08/20 11:55:08;;;;;;;5.70;2.28;;;;;29.50;101234.00;;;;12695084;23;20180;-82
2022/08/20 12:00:15;;;;;;;7.25;2.03;;;;;30.80;101234.00;;;;12691311;23;20164;-82
2022/08/20 12:05:18;;;;;;;8.43;2.58;;;;;31.10;101237.00;;;;12715678;23;20171;-84
2022/08/20 12:10:21;;;;;;;6.78;2.13;;;;;32.00;101235.00;;;;12675883;23;20218;-83
2022/08/20 12:15:25;;;;;;;6.20;1.90;;;;;31.20;101235.00;;;;12675433;23;20163;-83
2022/08/20 12:20:28;;;;;;;5.32;2.17;;;;;31.50;101244.00;;;;12678984;23;20191;-83
2022/08/20 12:25:30;;;;;;;5.43;2.33;;;;;29.30;101249.00;;;;12694801;23;20721;-82
2022/08/20 12:30:33;;;;;;;6.32;2.00;;;;;31.20;101233.00;;;;12653151;23;20203;-82
2022/08/20 12:35:35;;;;;;;7.40;2.20;;;;;32.10;101233.00;;;;12701330;23;20176;-83
2022/08/20 12:40:37;;;;;;;5.72;1.80;;;;;31.60;101236.00;;;;12700688;23;20184;-83
2022/08/20 12:45:40;;;;;;;5.35;2.22;;;;;32.60;101238.00;;;;12676506;23;20214;-82
2022/08/20 12:50:45;;;;;;;5.78;1.80;;;;;32.50;101238.00;;;;12676348;23;20192;-83
2022/08/20 12:55:47;;;;;;;8.35;2.45;;;;;32.50;101241.00;;;;12676838;23;20172;-82
2022/08/20 13:00:51;;;;;;;5.43;1.60;;;;;32.40;101231.00;;;;12674967;23;20189;-83
2022/08/20 13:05:53;;;;;;;2.78;1.38;;;;;30.80;101237.00;;;;12674021;23;20249;-82
2022/08/20 13:10:55;;;;;;;4.60;1.75;;;;;30.70;101240.00;;;;12743723;23;20195;-82
2022/08/20 13:15:57;;;;;;;3.65;1.67;;;;;29.80;101240.00;;;;12697377;23;20183;-82
2022/08/20 13:20:59;;;;;;;5.00;1.92;;;;;27.70;101237.00;;;;12698198;23;20503;-81
2022/08/20 13:26:02;;;;;;;5.90;1.58;;;;;30.30;101227.00;;;;12719187;23;20168;-81
2022/08/20 13:31:06;;;;;;;5.00;1.48;;;;;31.90;101222.00;;;;12675743;23;20488;-82
2022/08/20 13:36:08;;;;;;;4.38;1.70;;;;;32.90;101226.00;;;;12718908;23;20214;-82
2022/08/20 13:41:10;;;;;;;5.90;2.17;;;;;31.40;101233.00;;;;12674775;23;20175;-82
2022/08/20 13:46:12;;;;;;;4.60;1.70;;;;;30.20;101231.00;;;;12701223;23;20167;-82
2022/08/20 13:51:14;;;;;;;4.45;2.15;;;;;32.50;101214.00;;;;12702398;23;20191;-81
2022/08/20 13:56:19;;;;;;;6.47;1.80;;;;;30.00;101241.00;;;;12680817;23;20254;-81
2022/08/20 14:01:22;;;;;;;5.18;1.75;;;;;28.20;101234.00;;;;12749252;23;20156;-81
2022/08/20 14:06:24;;;;;;;6.32;2.10;;;;;32.20;101232.00;;;;12701373;23;20205;-82
2022/08/20 14:11:26;;;;;;;3.55;1.60;;;;;28.90;101216.00;;;;12678409;23;20191;-82
2022/08/20 14:16:29;;;;;;;6.13;1.83;;;;;27.10;101216.00;;;;12678922;23;20199;-82
2022/08/20 14:21:37;;;;;;;3.35;1.42;;;;;26.50;101222.00;;;;12721981;23;20179;-82
2022/08/20 14:26:39;;;;;;;4.03;1.65;;;;;26.50;101207.00;;;;12669761;23;20974;-81
2022/08/20 14:31:41;;;;;;;4.00;1.48;;;;;32.80;101188.00;;;;12699561;23;20194;-81
2022/08/20 14:36:43;;;;;;;6.80;1.80;;;;;29.90;101224.00;;;;12651854;23;20190;-81
2022/08/20 14:41:48;;;;;;;4.32;1.67;;;;;27.50;101212.00;;;;12701853;23;20171;-83
2022/08/20 14:46:50;;;;;;;4.50;1.58;;;;;27.40;101203.00;;;;12654939;23;20192;-82
2022/08/20 14:51:52;;;;;;;6.85;1.50;;;;;27.00;101197.00;;;;12703556;23;20192;-82
2022/08/20 14:56:56;;;;;;;6.57;1.92;;;;;29.80;101200.00;;;;12705852;23;20171;-83
2022/08/20 15:02:05;;;;;;;4.55;1.73;;;;;29.60;101202.00;;;;12681418;23;20164;-82
2022/08/20 15:07:21;;;;;;;6.07;1.80;;;;;27.00;101205.00;;;;12725213;23;20171;-82
2022/08/20 15:12:23;;;;;;;7.80;1.88;;;;;26.70;101187.00;;;;12658012;23;20174;-81
2022/08/20 15:17:28;;;;;;;10.18;1.65;;;;;27.00;101179.00;;;;12678993;23;20201;-81
2022/08/20 15:22:30;;;;;;;4.40;1.67;;;;;26.50;101182.00;;;;12693158;23;20171;-82
2022/08/20 15:27:35;;;;;;;6.50;1.40;;;;;26.20;101194.00;;;;12699812;23;20237;-80
2022/08/20 15:32:38;;;;;;;4.40;2.00;;;;;25.90;101202.00;;;;12699932;23;20191;-82
2022/08/20 15:37:45;;;;;;;5.20;1.35;;;;;25.80;101201.00;;;;12675859;23;20175;-81
2022/08/20 15:42:48;;;;;;;3.05;1.77;;;;;25.60;101193.00;;;;12701335;23;20168;-81
2022/08/20 15:48:00;;;;;;;3.20;1.20;;;;;25.30;101199.00;;;;12728856;23;20192;-81
2022/08/20 15:53:08;;;;;;;4.68;1.60;;;;;25.20;101197.00;;;;12833934;22;20167;-81
2022/08/20 15:58:22;;;;;;;5.85;1.45;;;;;25.20;101196.00;;;;12682903;23;20580;-81
2022/08/20 16:03:30;;;;;;;4.30;1.42;;;;;25.20;101203.00;;;;12729760;23;20536;-81
2022/08/20 16:08:46;;;;;;;6.13;1.75;;;;;25.10;101197.00;;;;12681458;23;20203;-82
2022/08/20 16:13:48;;;;;;;9.65;5.18;;;;;25.00;101199.00;;;;12727758;23;20191;-82
2022/08/20 16:18:52;;;;;;;5.40;2.05;;;;;24.80;101184.00;;;;12727638;23;20187;-83
2022/08/20 16:23:55;;;;;;;4.82;1.90;;;;;25.30;101185.00;;;;12751763;23;20168;-80
2022/08/20 16:29:03;;;;;;;4.03;1.63;;;;;25.20;101188.00;;;;12707462;23;20646;-80
2022/08/20 16:34:37;;;;;;;5.43;1.80;;;;;24.50;101185.00;;;;12683141;23;20258;-80
2022/08/20 16:40:05;;;;;;;6.78;2.10;;;;;24.00;101192.00;;;;12684498;23;20658;-84
2022/08/20 16:45:18;;;;;;;3.38;1.45;;;;;23.90;101188.00;;;;12700151;23;20477;-83
2022/08/20 16:50:25;;;;;;;5.45;1.85;;;;;23.80;101195.00;;;;12707870;23;20198;-82
2022/08/20 16:55:27;;;;;;;6.60;1.88;;;;;23.80;101193.00;;;;12708135;23;20175;-81
2022/08/20 17:00:34;;;;;;;29.05;3.85;;;;;23.90;101191.00;;;;12706800;23;20179;-82
2022/08/20 17:05:49;;;;;;;5.43;2.40;;;;;23.80;101189.00;;;;12706714;23;20183;-81
2022/08/20 17:11:34;;;;;;;4.35;1.58;;;;;23.60;101192.00;;;;12682457;23;20225;-80
2022/08/20 17:16:46;;;;;;;11.32;2.17;;;;;23.50;101195.00;;;;12657300;23;20235;-80
2022/08/20 17:21:48;;;;;;;4.70;1.80;;;;;23.40;101187.00;;;;12725516;23;20152;-79
2022/08/20 17:27:04;;;;;;;1.92;1.42;;;;;23.20;101199.00;;;;12725946;23;20626;-79
2022/08/20 17:32:19;;;;;;;4.07;1.60;;;;;22.90;101200.00;;;;12725520;23;20182;-81
2022/08/20 17:37:25;;;;;;;3.17;1.92;;;;;22.70;101204.00;;;;12680292;23;20184;-81
2022/08/20 17:42:28;;;;;;;5.95;1.73;;;;;22.60;101208.00;;;;12731939;23;20171;-81
2022/08/20 17:47:34;;;;;;;5.10;1.80;;;;;22.50;101219.00;;;;12656829;23;20196;-80
2022/08/20 17:52:47;;;;;;;5.60;1.67;;;;;22.50;101208.00;;;;12724069;23;20190;-80
2022/08/20 17:57:55;;;;;;;4.53;1.58;;;;;22.40;101206.00;;;;12724244;23;20485;-78
2022/08/20 18:03:14;;;;;;;5.00;1.70;;;;;22.30;101211.00;;;;12715897;23;20172;-78
2022/08/20 18:08:46;;;;;;;3.13;1.33;;;;;22.20;101202.00;;;;12702727;23;20199;-78
2022/08/20 18:14:10;;;;;;;4.25;2.35;;;;;21.90;101207.00;;;;12751351;23;20208;-77
2022/08/20 18:19:20;;;;;;;8.05;1.63;;;;;21.80;101197.00;;;;12722299;23;20504;-78
2022/08/20 18:24:37;;;;;;;3.85;1.45;;;;;21.60;101193.00;;;;12729424;23;20229;-79
2022/08/20 18:29:42;;;;;;;3.78;1.58;;;;;21.40;101188.00;;;;12740506;23;20171;-77
2022/08/20 18:34:49;;;;;;;5.38;1.73;;;;;21.20;101195.00;;;;12693494;23;20148;-77
2022/08/20 18:40:03;;;;;;;6.45;1.80;;;;;21.00;101202.00;;;;12702815;23;20202;-77
2022/08/20 18:45:08;;;;;;;4.10;1.77;;;;;20.70;101204.00;;;;12704692;23;20191;-78
2022/08/20 18:50:19;;;;;;;4.72;1.80;;;;;20.60;101203.00;;;;12727975;23;20184;-78
2022/08/20 18:55:40;;;;;;;4.45;1.15;;;;;20.30;101206.00;;;;12727566;23;20164;-78
2022/08/20 19:00:48;;;;;;;5.13;1.60;;;;;20.10;101221.00;;;;12702811;23;20164;-77
2022/08/20 19:06:08;;;;;;;7.20;1.55;;;;;19.80;101213.00;;;;12708290;23;20190;-77
2022/08/20 19:11:37;;;;;;;6.18;2.05;;;;;19.60;101216.00;;;;12754170;23;20198;-78
2022/08/20 19:16:49;;;;;;;5.40;1.58;;;;;19.30;101226.00;;;;12702461;23;20200;-78
2022/08/20 19:21:54;;;;;;;3.97;1.70;;;;;19.00;101227.00;;;;12702662;23;20209;-79
2022/08/20 19:27:01;;;;;;;5.32;1.80;;;;;18.80;101223.00;;;;12724076;23;20187;-79
2022/08/20 19:32:06;;;;;;;4.75;2.55;;;;;18.50;101224.00;;;;12749445;23;20180;-78
2022/08/20 19:37:17;;;;;;;4.15;1.98;;;;;18.30;101227.00;;;;12683315;23;20198;-78
2022/08/20 19:42:41;;;;;;;7.63;2.85;;;;;18.10;101227.00;;;;12728558;23;20172;-78
2022/08/20 19:47:53;;;;;;;7.22;4.47;;;;;18.00;101231.00;;;;12702483;23;20229;-79
2022/08/20 19:53:28;;;;;;;12.65;7.32;;;;;17.80;101228.00;;;;12696405;23;20694;-78
2022/08/20 19:58:32;;;;;;;12.93;7.50;;;;;17.70;101234.00;;;;12709640;23;20759;-78
2022/08/20 20:03:39;;;;;;;11.63;7.18;;;;;17.50;101237.00;;;;12701774;23;20183;-78
2022/08/20 20:08:52;;;;;;;16.10;7.63;;;;;17.40;101234.00;;;;12681381;23;20629;-77
2022/08/20 20:14:00;;;;;;;10.68;5.35;;;;;17.30;101237.00;;;;12682537;23;20249;-78
2022/08/20 20:19:08;;;;;;;6.85;4.05;;;;;17.20;101233.00;;;;12683401;23;20259;-78
2022/08/20 20:24:29;;;;;;;10.20;5.07;;;;;17.10;101230.00;;;;12660893;22;20245;-79
2022/08/20 20:29:36;;;;;;;9.32;3.85;;;;;17.00;101233.00;;;;12700313;23;20198;-78
2022/08/20 20:34:39;;;;;;;8.50;4.47;;;;;16.80;101228.00;;;;12674405;23;20443;-79
2022/08/20 20:40:01;;;;;;;9.32;3.53;;;;;16.80;101222.00;;;;12681049;23;20556;-79
2022/08/20 20:45:17;;;;;;;8.82;3.80;;;;;16.70;101215.00;;;;12782036;22;20249;-79
2022/08/20 20:50:35;;;;;;;9.43;3.47;;;;;16.60;101220.00;;;;12649118;23;20203;-79
2022/08/20 21:04:43;;;;;;;11.13;3.65;;;;;16.50;101217.00;;;;12710942;23;20207;-77
2022/08/20 21:09:45;;;;;;;8.27;3.90;;;;;16.40;101219.00;;;;12612619;23;20777;-77
2022/08/20 21:14:48;;;;;;;7.68;3.15;;;;;16.40;101226.00;;;;12612313;23;20210;-77
2022/08/20 21:19:51;;;;;;;5.63;3.15;;;;;16.30;101233.00;;;;12707760;23;20255;-77
2022/08/20 21:24:53;;;;;;;6.18;3.20;;;;;16.30;101232.00;;;;12636962;23;20222;-78
2022/08/20 21:29:55;;;;;;;4.78;3.30;;;;;16.20;101237.00;;;;12704213;23;20191;-77
2022/08/20 21:34:57;;;;;;;9.20;4.50;;;;;16.10;101236.00;;;;12683574;23;20190;-77
2022/08/20 21:39:59;;;;;;;14.35;5.05;;;;;16.10;101239.00;;;;12665440;23;20515;-77
2022/08/20 21:45:02;;;;;;;8.88;4.97;;;;;16.10;101238.00;;;;12641846;23;20645;-77
2022/08/20 21:50:06;;;;;;;10.10;5.88;;;;;16.10;101237.00;;;;12643323;23;20214;-77
2022/08/20 21:55:09;;;;;;;11.60;5.35;;;;;16.00;101235.00;;;;12707688;23;20191;-77
2022/08/20 22:00:39;;;;;;;8.18;4.03;;;;;16.00;101242.00;;;;12665938;23;20179;-77
2022/08/20 22:05:42;;;;;;;7.88;3.72;;;;;16.00;101239.00;;;;12621331;23;20233;-77
2022/08/20 22:10:45;;;;;;;7.70;3.92;;;;;16.00;101241.00;;;;12642179;23;20195;-77
2022/08/20 22:15:47;;;;;;;8.20;3.00;;;;;16.00;101237.00;;;;12642939;23;20176;-77
2022/08/20 22:20:49;;;;;;;6.25;2.80;;;;;16.10;101238.00;;;;12692976;23;20234;-77
2022/08/20 22:25:51;;;;;;;7.07;2.95;;;;;16.20;101252.00;;;;12691884;23;20652;-77
2022/08/20 22:30:53;;;;;;;8.13;3.08;;;;;16.20;101245.00;;;;12643136;23;20206;-77
2022/08/20 22:35:56;;;;;;;7.47;3.23;;;;;16.20;101244.00;;;;12691624;23;20267;-77
2022/08/20 22:40:58;;;;;;;8.52;3.50;;;;;16.10;101241.00;;;;12644376;23;20545;-77
2022/08/20 22:46:01;;;;;;;6.50;2.70;;;;;16.00;101238.00;;;;12666540;23;20243;-78
2022/08/20 22:51:03;;;;;;;5.53;2.60;;;;;15.90;101242.00;;;;12641395;23;20254;-77
2022/08/20 22:56:05;;;;;;;7.97;2.90;;;;;15.80;101231.00;;;;12642712;23;20204;-78
2022/08/20 23:01:15;;;;;;;9.37;2.33;;;;;15.70;101245.00;;;;12665225;23;20176;-78
2022/08/20 23:06:17;;;;;;;8.10;3.20;;;;;15.70;101239.00;;;;12641312;23;20253;-78
2022/08/20 23:11:20;;;;;;;6.73;2.73;;;;;15.80;101244.00;;;;12660287;23;20191;-78
2022/08/20 23:16:23;;;;;;;7.87;2.17;;;;;16.00;101242.00;;;;12665829;23;20218;-78
2022/08/20 23:21:25;;;;;;;7.27;2.13;;;;;16.10;101234.00;;;;12644111;23;20180;-77
2022/08/20 23:26:27;;;;;;;7.60;2.10;;;;;16.10;101241.00;;;;12643842;23;20186;-77
2022/08/20 23:31:29;;;;;;;5.33;2.00;;;;;16.10;101241.00;;;;12665833;23;20195;-78
2022/08/20 23:36:33;;;;;;;7.85;2.15;;;;;16.10;101235.00;;;;12696114;23;20182;-77
2022/08/20 23:41:35;;;;;;;5.28;1.85;;;;;16.10;101242.00;;;;12671617;23;20184;-77
2022/08/20 23:46:37;;;;;;;8.35;2.25;;;;;16.20;101241.00;;;;12648603;23;20183;-77
2022/08/20 23:51:39;;;;;;;8.48;2.40;;;;;16.20;101238.00;;;;12648614;23;20196;-78
2022/08/20 23:56:41;;;;;;;6.03;2.35;;;;;16.20;101233.00;;;;12649330;23;20205;-77
